sensor_id;sensor_type;location;lat;lon;timestamp;P1;durP1;ratioP1;P2;durP2;ratioP2
65996;SDS011;52765;52.258;21.052;2023-04-25T00:00:20;18.60;;;12.07;;
65996;SDS011;52765;52.258;21.052;2023-04-25T00:02:45;17.48;;;11.95;;
65996;SDS011;52765;52.258;21.052;2023-04-25T00:05:12;16.50;;;10.65;;
65996;SDS011;52765;52.258;21.052;2023-04-25T00:07:40;17.63;;;11.50;;
65996;SDS011;52765;52.258;21.052;2023-04-25T00:10:08;15.50;;;11.05;;
65996;SDS011;52765;52.258;21.052;2023-04-25T00:12:37;16.88;;;11.30;;
65996;SDS011;52765;52.258;21.052;2023-04-25T00:15:04;15.15;;;11.45;;
65996;SDS011;52765;52.258;21.052;2023-04-25T00:17:30;17.25;;;11.52;;
65996;SDS011;52765;52.258;21.052;2023-04-25T00:19:56;16.23;;;11.52;;
65996;SDS011;52765;52.258;21.052;2023-04-25T00:22:23;15.73;;;11.60;;
65996;SDS011;52765;52.258;21.052;2023-04-25T00:24:49;15.40;;;11.20;;
65996;SDS011;52765;52.258;21.052;2023-04-25T00:27:15;17.95;;;11.90;;
65996;SDS011;52765;52.258;21.052;2023-04-25T00:29:40;18.92;;;12.30;;
65996;SDS011;52765;52.258;21.052;2023-04-25T00:32:06;14.02;;;10.68;;
65996;SDS011;52765;52.258;21.052;2023-04-25T00:34:31;15.10;;;11.13;;
65996;SDS011;52765;52.258;21.052;2023-04-25T00:36:57;18.83;;;11.85;;
65996;SDS011;52765;52.258;21.052;2023-04-25T00:39:22;16.30;;;11.35;;
65996;SDS011;52765;52.258;21.052;2023-04-25T00:41:48;18.27;;;12.07;;
65996;SDS011;52765;52.258;21.052;2023-04-25T00:44:13;16.92;;;11.18;;
65996;SDS011;52765;52.258;21.052;2023-04-25T00:46:42;18.10;;;12.02;;
65996;SDS011;52765;52.258;21.052;2023-04-25T00:49:07;16.45;;;11.90;;
65996;SDS011;52765;52.258;21.052;2023-04-25T00:51:33;17.42;;;12.23;;
65996;SDS011;52765;52.258;21.052;2023-04-25T00:54:00;16.23;;;12.48;;
65996;SDS011;52765;52.258;21.052;2023-04-25T00:56:26;19.45;;;13.65;;
65996;SDS011;52765;52.258;21.052;2023-04-25T00:58:53;19.48;;;12.68;;
65996;SDS011;52765;52.258;21.052;2023-04-25T01:01:22;18.05;;;13.35;;
65996;SDS011;52765;52.258;21.052;2023-04-25T01:03:47;20.70;;;13.75;;
65996;SDS011;52765;52.258;21.052;2023-04-25T01:06:15;20.55;;;13.20;;
65996;SDS011;52765;52.258;21.052;2023-04-25T01:08:41;21.27;;;13.50;;
65996;SDS011;52765;52.258;21.052;2023-04-25T01:11:06;20.60;;;13.70;;
65996;SDS011;52765;52.258;21.052;2023-04-25T01:13:32;18.67;;;13.63;;
65996;SDS011;52765;52.258;21.052;2023-04-25T01:15:59;19.33;;;13.25;;
65996;SDS011;52765;52.258;21.052;2023-04-25T01:18:25;23.58;;;14.90;;
65996;SDS011;52765;52.258;21.052;2023-04-25T01:20:51;20.92;;;14.02;;
65996;SDS011;52765;52.258;21.052;2023-04-25T01:23:18;18.80;;;13.45;;
65996;SDS011;52765;52.258;21.052;2023-04-25T01:25:45;22.13;;;15.02;;
65996;SDS011;52765;52.258;21.052;2023-04-25T01:28:10;20.10;;;13.45;;
65996;SDS011;52765;52.258;21.052;2023-04-25T01:30:36;20.45;;;14.27;;
65996;SDS011;52765;52.258;21.052;2023-04-25T01:33:04;23.73;;;14.88;;
65996;SDS011;52765;52.258;21.052;2023-04-25T01:35:30;21.85;;;14.95;;
65996;SDS011;52765;52.258;21.052;2023-04-25T01:37:59;20.73;;;14.07;;
65996;SDS011;52765;52.258;21.052;2023-04-25T01:40:25;17.55;;;12.77;;
65996;SDS011;52765;52.258;21.052;2023-04-25T01:42:52;17.58;;;12.85;;
65996;SDS011;52765;52.258;21.052;2023-04-25T01:45:21;19.00;;;12.90;;
65996;SDS011;52765;52.258;21.052;2023-04-25T01:47:46;19.48;;;12.95;;
65996;SDS011;52765;52.258;21.052;2023-04-25T01:50:14;23.15;;;12.75;;
65996;SDS011;52765;52.258;21.052;2023-04-25T01:52:44;20.27;;;12.18;;
65996;SDS011;52765;52.258;21.052;2023-04-25T01:55:10;18.05;;;11.63;;
65996;SDS011;52765;52.258;21.052;2023-04-25T01:57:36;17.65;;;11.45;;
65996;SDS011;52765;52.258;21.052;2023-04-25T02:00:03;19.45;;;12.63;;
65996;SDS011;52765;52.258;21.052;2023-04-25T02:02:31;15.38;;;11.38;;
65996;SDS011;52765;52.258;21.052;2023-04-25T02:04:57;18.92;;;11.88;;
65996;SDS011;52765;52.258;21.052;2023-04-25T02:07:22;17.55;;;12.32;;
65996;SDS011;52765;52.258;21.052;2023-04-25T02:09:48;17.33;;;11.85;;
65996;SDS011;52765;52.258;21.052;2023-04-25T02:12:14;18.33;;;11.88;;
65996;SDS011;52765;52.258;21.052;2023-04-25T02:14:41;17.30;;;11.00;;
65996;SDS011;52765;52.258;21.052;2023-04-25T02:17:06;18.63;;;12.43;;
65996;SDS011;52765;52.258;21.052;2023-04-25T02:19:35;16.42;;;10.85;;
65996;SDS011;52765;52.258;21.052;2023-04-25T02:22:01;20.60;;;12.43;;
65996;SDS011;52765;52.258;21.052;2023-04-25T02:24:29;17.30;;;11.30;;
65996;SDS011;52765;52.258;21.052;2023-04-25T02:26:55;13.35;;;10.07;;
65996;SDS011;52765;52.258;21.052;2023-04-25T02:29:21;17.73;;;12.02;;
65996;SDS011;52765;52.258;21.052;2023-04-25T02:31:46;17.70;;;11.80;;
65996;SDS011;52765;52.258;21.052;2023-04-25T02:34:12;16.83;;;11.55;;
65996;SDS011;52765;52.258;21.052;2023-04-25T02:36:38;18.23;;;11.25;;
65996;SDS011;52765;52.258;21.052;2023-04-25T02:39:03;16.23;;;10.55;;
65996;SDS011;52765;52.258;21.052;2023-04-25T02:41:29;16.13;;;12.20;;
65996;SDS011;52765;52.258;21.052;2023-04-25T02:43:54;16.63;;;10.70;;
65996;SDS011;52765;52.258;21.052;2023-04-25T02:46:20;17.42;;;10.63;;
65996;SDS011;52765;52.258;21.052;2023-04-25T02:48:46;15.43;;;10.10;;
65996;SDS011;52765;52.258;21.052;2023-04-25T02:51:11;15.57;;;10.55;;
65996;SDS011;52765;52.258;21.052;2023-04-25T02:53:37;15.75;;;10.38;;
65996;SDS011;52765;52.258;21.052;2023-04-25T02:56:03;18.65;;;10.50;;
65996;SDS011;52765;52.258;21.052;2023-04-25T02:58:28;15.18;;;9.35;;
65996;SDS011;52765;52.258;21.052;2023-04-25T03:00:54;16.60;;;9.98;;
65996;SDS011;52765;52.258;21.052;2023-04-25T03:03:20;16.60;;;9.80;;
65996;SDS011;52765;52.258;21.052;2023-04-25T03:05:48;14.82;;;9.75;;
65996;SDS011;52765;52.258;21.052;2023-04-25T03:08:14;11.77;;;8.95;;
65996;SDS011;52765;52.258;21.052;2023-04-25T03:10:39;16.23;;;10.00;;
65996;SDS011;52765;52.258;21.052;2023-04-25T03:13:05;14.07;;;9.40;;
65996;SDS011;52765;52.258;21.052;2023-04-25T03:15:30;17.35;;;9.23;;
65996;SDS011;52765;52.258;21.052;2023-04-25T03:17:56;16.17;;;9.40;;
65996;SDS011;52765;52.258;21.052;2023-04-25T03:20:21;14.45;;;9.52;;
65996;SDS011;52765;52.258;21.052;2023-04-25T03:22:47;15.30;;;9.38;;
65996;SDS011;52765;52.258;21.052;2023-04-25T03:25:16;15.68;;;9.68;;
65996;SDS011;52765;52.258;21.052;2023-04-25T03:27:42;12.27;;;8.63;;
65996;SDS011;52765;52.258;21.052;2023-04-25T03:30:08;12.88;;;8.98;;
65996;SDS011;52765;52.258;21.052;2023-04-25T03:32:35;15.95;;;9.30;;
65996;SDS011;52765;52.258;21.052;2023-04-25T03:35:01;14.27;;;9.05;;
65996;SDS011;52765;52.258;21.052;2023-04-25T03:37:26;18.17;;;10.25;;
65996;SDS011;52765;52.258;21.052;2023-04-25T03:39:52;15.60;;;8.85;;
65996;SDS011;52765;52.258;21.052;2023-04-25T03:42:17;14.27;;;9.85;;
65996;SDS011;52765;52.258;21.052;2023-04-25T03:44:43;15.35;;;9.65;;
65996;SDS011;52765;52.258;21.052;2023-04-25T03:47:09;15.55;;;8.70;;
65996;SDS011;52765;52.258;21.052;2023-04-25T03:49:40;12.70;;;8.32;;
65996;SDS011;52765;52.258;21.052;2023-04-25T03:52:06;13.32;;;9.30;;
65996;SDS011;52765;52.258;21.052;2023-04-25T03:54:35;16.92;;;9.10;;
65996;SDS011;52765;52.258;21.052;2023-04-25T03:57:00;12.10;;;8.27;;
65996;SDS011;52765;52.258;21.052;2023-04-25T03:59:26;15.35;;;9.38;;
65996;SDS011;52765;52.258;21.052;2023-04-25T04:01:52;15.80;;;8.60;;
65996;SDS011;52765;52.258;21.052;2023-04-25T04:04:18;14.43;;;8.65;;
65996;SDS011;52765;52.258;21.052;2023-04-25T04:06:49;14.95;;;8.73;;
65996;SDS011;52765;52.258;21.052;2023-04-25T04:09:15;12.25;;;8.02;;
65996;SDS011;52765;52.258;21.052;2023-04-25T04:11:41;11.25;;;8.25;;
65996;SDS011;52765;52.258;21.052;2023-04-25T04:14:07;12.43;;;8.68;;
65996;SDS011;52765;52.258;21.052;2023-04-25T04:16:33;11.90;;;8.60;;
65996;SDS011;52765;52.258;21.052;2023-04-25T04:18:58;12.35;;;8.90;;
65996;SDS011;52765;52.258;21.052;2023-04-25T04:21:24;11.02;;;8.43;;
65996;SDS011;52765;52.258;21.052;2023-04-25T04:23:49;14.48;;;8.93;;
65996;SDS011;52765;52.258;21.052;2023-04-25T04:26:15;12.77;;;8.80;;
65996;SDS011;52765;52.258;21.052;2023-04-25T04:28:44;16.50;;;9.30;;
65996;SDS011;52765;52.258;21.052;2023-04-25T04:31:09;14.57;;;9.10;;
65996;SDS011;52765;52.258;21.052;2023-04-25T04:33:36;14.68;;;9.23;;
65996;SDS011;52765;52.258;21.052;2023-04-25T04:36:02;13.02;;;8.20;;
65996;SDS011;52765;52.258;21.052;2023-04-25T04:38:28;12.82;;;8.68;;
65996;SDS011;52765;52.258;21.052;2023-04-25T04:40:54;14.10;;;8.13;;
65996;SDS011;52765;52.258;21.052;2023-04-25T04:43:21;14.30;;;8.38;;
65996;SDS011;52765;52.258;21.052;2023-04-25T04:45:49;12.30;;;8.95;;
65996;SDS011;52765;52.258;21.052;2023-04-25T04:48:21;11.35;;;8.00;;
65996;SDS011;52765;52.258;21.052;2023-04-25T04:50:47;12.48;;;8.13;;
65996;SDS011;52765;52.258;21.052;2023-04-25T04:53:13;14.43;;;8.80;;
65996;SDS011;52765;52.258;21.052;2023-04-25T04:55:38;13.15;;;8.75;;
65996;SDS011;52765;52.258;21.052;2023-04-25T04:58:06;18.30;;;7.90;;
65996;SDS011;52765;52.258;21.052;2023-04-25T05:00:32;12.75;;;7.72;;
65996;SDS011;52765;52.258;21.052;2023-04-25T05:02:58;9.77;;;7.50;;
65996;SDS011;52765;52.258;21.052;2023-04-25T05:05:24;11.52;;;8.48;;
65996;SDS011;52765;52.258;21.052;2023-04-25T05:07:50;13.25;;;8.68;;
65996;SDS011;52765;52.258;21.052;2023-04-25T05:10:16;13.30;;;8.27;;
65996;SDS011;52765;52.258;21.052;2023-04-25T05:12:43;14.27;;;8.38;;
65996;SDS011;52765;52.258;21.052;2023-04-25T05:15:09;15.13;;;8.00;;
65996;SDS011;52765;52.258;21.052;2023-04-25T05:17:38;12.23;;;7.63;;
65996;SDS011;52765;52.258;21.052;2023-04-25T05:20:04;12.32;;;7.60;;
65996;SDS011;52765;52.258;21.052;2023-04-25T05:22:36;10.40;;;8.05;;
65996;SDS011;52765;52.258;21.052;2023-04-25T05:25:02;12.00;;;8.65;;
65996;SDS011;52765;52.258;21.052;2023-04-25T05:27:28;13.85;;;9.30;;
65996;SDS011;52765;52.258;21.052;2023-04-25T05:29:54;12.38;;;8.98;;
65996;SDS011;52765;52.258;21.052;2023-04-25T05:32:19;12.13;;;9.00;;
65996;SDS011;52765;52.258;21.052;2023-04-25T05:34:45;11.27;;;9.40;;
65996;SDS011;52765;52.258;21.052;2023-04-25T05:37:11;14.88;;;8.98;;
65996;SDS011;52765;52.258;21.052;2023-04-25T05:39:37;13.23;;;8.82;;
65996;SDS011;52765;52.258;21.052;2023-04-25T05:42:02;12.20;;;8.07;;
65996;SDS011;52765;52.258;21.052;2023-04-25T05:44:28;11.73;;;9.13;;
65996;SDS011;52765;52.258;21.052;2023-04-25T05:46:55;13.00;;;8.93;;
65996;SDS011;52765;52.258;21.052;2023-04-25T05:49:20;15.77;;;9.65;;
65996;SDS011;52765;52.258;21.052;2023-04-25T05:51:46;13.90;;;9.13;;
65996;SDS011;52765;52.258;21.052;2023-04-25T05:54:11;13.98;;;10.50;;
65996;SDS011;52765;52.258;21.052;2023-04-25T05:56:40;17.52;;;11.10;;
65996;SDS011;52765;52.258;21.052;2023-04-25T05:59:06;13.82;;;10.10;;
65996;SDS011;52765;52.258;21.052;2023-04-25T06:01:31;14.23;;;10.50;;
65996;SDS011;52765;52.258;21.052;2023-04-25T06:03:57;16.52;;;10.90;;
65996;SDS011;52765;52.258;21.052;2023-04-25T06:06:22;12.73;;;10.52;;
65996;SDS011;52765;52.258;21.052;2023-04-25T06:08:48;15.00;;;10.05;;
65996;SDS011;52765;52.258;21.052;2023-04-25T06:11:13;15.77;;;10.32;;
65996;SDS011;52765;52.258;21.052;2023-04-25T06:13:39;14.00;;;9.63;;
65996;SDS011;52765;52.258;21.052;2023-04-25T06:16:05;16.77;;;11.77;;
65996;SDS011;52765;52.258;21.052;2023-04-25T06:18:31;13.80;;;9.57;;
65996;SDS011;52765;52.258;21.052;2023-04-25T06:20:56;12.98;;;9.85;;
65996;SDS011;52765;52.258;21.052;2023-04-25T06:23:22;11.45;;;9.27;;
65996;SDS011;52765;52.258;21.052;2023-04-25T06:25:48;12.43;;;9.60;;
65996;SDS011;52765;52.258;21.052;2023-04-25T06:28:13;17.33;;;9.95;;
65996;SDS011;52765;52.258;21.052;2023-04-25T06:30:39;13.57;;;9.02;;
65996;SDS011;52765;52.258;21.052;2023-04-25T06:33:08;13.52;;;8.80;;
65996;SDS011;52765;52.258;21.052;2023-04-25T06:35:34;10.75;;;8.20;;
65996;SDS011;52765;52.258;21.052;2023-04-25T06:38:00;10.02;;;7.93;;
65996;SDS011;52765;52.258;21.052;2023-04-25T06:40:26;11.05;;;9.00;;
65996;SDS011;52765;52.258;21.052;2023-04-25T06:42:51;14.05;;;10.30;;
65996;SDS011;52765;52.258;21.052;2023-04-25T06:45:17;13.63;;;10.38;;
65996;SDS011;52765;52.258;21.052;2023-04-25T06:47:42;12.15;;;9.93;;
65996;SDS011;52765;52.258;21.052;2023-04-25T06:50:08;13.65;;;10.45;;
65996;SDS011;52765;52.258;21.052;2023-04-25T06:52:40;14.25;;;10.48;;
65996;SDS011;52765;52.258;21.052;2023-04-25T06:55:05;12.43;;;9.85;;
65996;SDS011;52765;52.258;21.052;2023-04-25T06:57:34;14.50;;;10.27;;
65996;SDS011;52765;52.258;21.052;2023-04-25T06:59:59;15.98;;;11.43;;
65996;SDS011;52765;52.258;21.052;2023-04-25T07:02:30;18.15;;;11.63;;
65996;SDS011;52765;52.258;21.052;2023-04-25T07:04:56;15.65;;;11.85;;
65996;SDS011;52765;52.258;21.052;2023-04-25T07:07:25;12.85;;;9.95;;
65996;SDS011;52765;52.258;21.052;2023-04-25T07:09:51;16.38;;;10.13;;
65996;SDS011;52765;52.258;21.052;2023-04-25T07:12:16;12.88;;;8.90;;
65996;SDS011;52765;52.258;21.052;2023-04-25T07:14:42;12.55;;;8.40;;
65996;SDS011;52765;52.258;21.052;2023-04-25T07:17:08;10.93;;;8.75;;
65996;SDS011;52765;52.258;21.052;2023-04-25T07:19:33;9.07;;;7.05;;
65996;SDS011;52765;52.258;21.052;2023-04-25T07:21:59;8.55;;;7.13;;
65996;SDS011;52765;52.258;21.052;2023-04-25T07:24:25;10.15;;;8.00;;
65996;SDS011;52765;52.258;21.052;2023-04-25T07:26:51;10.50;;;8.32;;
65996;SDS011;52765;52.258;21.052;2023-04-25T07:29:16;12.00;;;7.88;;
65996;SDS011;52765;52.258;21.052;2023-04-25T07:31:42;10.18;;;8.55;;
65996;SDS011;52765;52.258;21.052;2023-04-25T07:34:10;12.00;;;7.85;;
65996;SDS011;52765;52.258;21.052;2023-04-25T07:36:36;11.02;;;8.57;;
65996;SDS011;52765;52.258;21.052;2023-04-25T07:39:02;16.60;;;8.15;;
65996;SDS011;52765;52.258;21.052;2023-04-25T07:41:28;14.57;;;8.57;;
65996;SDS011;52765;52.258;21.052;2023-04-25T07:43:53;11.75;;;8.38;;
65996;SDS011;52765;52.258;21.052;2023-04-25T07:46:19;9.55;;;7.13;;
65996;SDS011;52765;52.258;21.052;2023-04-25T07:48:44;9.90;;;7.88;;
65996;SDS011;52765;52.258;21.052;2023-04-25T07:51:10;9.65;;;7.65;;
65996;SDS011;52765;52.258;21.052;2023-04-25T07:53:39;14.93;;;9.15;;
65996;SDS011;52765;52.258;21.052;2023-04-25T07:56:05;12.63;;;8.50;;
65996;SDS011;52765;52.258;21.052;2023-04-25T07:58:31;13.07;;;8.65;;
65996;SDS011;52765;52.258;21.052;2023-04-25T08:00:57;12.68;;;8.48;;
65996;SDS011;52765;52.258;21.052;2023-04-25T08:03:22;15.20;;;9.23;;
65996;SDS011;52765;52.258;21.052;2023-04-25T08:05:48;13.38;;;9.90;;
65996;SDS011;52765;52.258;21.052;2023-04-25T08:08:13;12.13;;;9.63;;
65996;SDS011;52765;52.258;21.052;2023-04-25T08:10:39;13.68;;;9.30;;
65996;SDS011;52765;52.258;21.052;2023-04-25T08:13:05;11.15;;;9.32;;
65996;SDS011;52765;52.258;21.052;2023-04-25T08:15:30;14.30;;;9.35;;
65996;SDS011;52765;52.258;21.052;2023-04-25T08:17:56;13.75;;;9.00;;
65996;SDS011;52765;52.258;21.052;2023-04-25T08:20:22;12.65;;;9.23;;
65996;SDS011;52765;52.258;21.052;2023-04-25T08:22:47;12.40;;;9.52;;
65996;SDS011;52765;52.258;21.052;2023-04-25T08:25:14;12.23;;;9.25;;
65996;SDS011;52765;52.258;21.052;2023-04-25T08:27:39;15.95;;;10.38;;
65996;SDS011;52765;52.258;21.052;2023-04-25T08:30:08;11.73;;;9.57;;
65996;SDS011;52765;52.258;21.052;2023-04-25T08:32:37;16.13;;;10.13;;
65996;SDS011;52765;52.258;21.052;2023-04-25T08:35:05;13.52;;;9.07;;
65996;SDS011;52765;52.258;21.052;2023-04-25T08:37:31;11.45;;;8.85;;
65996;SDS011;52765;52.258;21.052;2023-04-25T08:39:57;13.85;;;9.23;;
65996;SDS011;52765;52.258;21.052;2023-04-25T08:42:23;9.80;;;8.45;;
65996;SDS011;52765;52.258;21.052;2023-04-25T08:44:49;11.35;;;8.45;;
65996;SDS011;52765;52.258;21.052;2023-04-25T08:47:19;9.70;;;8.20;;
65996;SDS011;52765;52.258;21.052;2023-04-25T08:49:48;12.45;;;8.70;;
65996;SDS011;52765;52.258;21.052;2023-04-25T08:52:16;14.32;;;8.60;;
65996;SDS011;52765;52.258;21.052;2023-04-25T08:54:48;10.02;;;7.75;;
65996;SDS011;52765;52.258;21.052;2023-04-25T08:57:14;8.35;;;7.30;;
65996;SDS011;52765;52.258;21.052;2023-04-25T08:59:40;9.68;;;7.68;;
65996;SDS011;52765;52.258;21.052;2023-04-25T09:02:10;12.25;;;8.10;;
65996;SDS011;52765;52.258;21.052;2023-04-25T09:04:39;10.23;;;8.13;;
65996;SDS011;52765;52.258;21.052;2023-04-25T09:07:05;10.48;;;7.78;;
65996;SDS011;52765;52.258;21.052;2023-04-25T09:09:31;9.40;;;7.63;;
65996;SDS011;52765;52.258;21.052;2023-04-25T09:11:56;8.80;;;7.88;;
65996;SDS011;52765;52.258;21.052;2023-04-25T09:14:23;11.75;;;7.97;;
65996;SDS011;52765;52.258;21.052;2023-04-25T09:19:22;11.05;;;8.15;;
65996;SDS011;52765;52.258;21.052;2023-04-25T09:21:49;10.75;;;8.40;;
65996;SDS011;52765;52.258;21.052;2023-04-25T09:24:15;10.48;;;8.15;;
65996;SDS011;52765;52.258;21.052;2023-04-25T09:26:41;10.52;;;8.32;;
65996;SDS011;52765;52.258;21.052;2023-04-25T09:29:08;10.15;;;8.40;;
65996;SDS011;52765;52.258;21.052;2023-04-25T09:31:34;11.50;;;8.20;;
65996;SDS011;52765;52.258;21.052;2023-04-25T09:33:59;11.35;;;8.30;;
65996;SDS011;52765;52.258;21.052;2023-04-25T09:36:26;9.88;;;7.97;;
65996;SDS011;52765;52.258;21.052;2023-04-25T09:38:53;13.43;;;8.15;;
65996;SDS011;52765;52.258;21.052;2023-04-25T09:41:23;9.00;;;7.00;;
65996;SDS011;52765;52.258;21.052;2023-04-25T09:43:49;11.48;;;7.55;;
65996;SDS011;52765;52.258;21.052;2023-04-25T09:46:15;10.88;;;8.00;;
65996;SDS011;52765;52.258;21.052;2023-04-25T09:48:46;10.82;;;7.53;;
65996;SDS011;52765;52.258;21.052;2023-04-25T09:51:14;10.50;;;7.75;;
65996;SDS011;52765;52.258;21.052;2023-04-25T09:53:41;8.82;;;7.50;;
65996;SDS011;52765;52.258;21.052;2023-04-25T09:56:08;15.02;;;8.27;;
65996;SDS011;52765;52.258;21.052;2023-04-25T09:58:36;10.32;;;8.23;;
65996;SDS011;52765;52.258;21.052;2023-04-25T10:01:04;14.25;;;8.73;;
65996;SDS011;52765;52.258;21.052;2023-04-25T10:03:40;10.70;;;9.18;;
65996;SDS011;52765;52.258;21.052;2023-04-25T10:06:14;15.52;;;9.05;;
65996;SDS011;52765;52.258;21.052;2023-04-25T10:08:44;10.60;;;8.63;;
65996;SDS011;52765;52.258;21.052;2023-04-25T10:11:21;11.48;;;8.88;;
65996;SDS011;52765;52.258;21.052;2023-04-25T10:13:51;11.43;;;8.88;;
65996;SDS011;52765;52.258;21.052;2023-04-25T10:16:17;11.90;;;8.38;;
65996;SDS011;52765;52.258;21.052;2023-04-25T10:18:43;10.07;;;8.63;;
65996;SDS011;52765;52.258;21.052;2023-04-25T10:21:11;12.52;;;9.95;;
65996;SDS011;52765;52.258;21.052;2023-04-25T10:23:39;13.13;;;9.63;;
65996;SDS011;52765;52.258;21.052;2023-04-25T10:26:05;11.93;;;9.40;;
65996;SDS011;52765;52.258;21.052;2023-04-25T10:31:37;15.45;;;11.57;;
65996;SDS011;52765;52.258;21.052;2023-04-25T10:34:10;14.27;;;11.90;;
65996;SDS011;52765;52.258;21.052;2023-04-25T10:36:36;15.88;;;12.27;;
65996;SDS011;52765;52.258;21.052;2023-04-25T10:39:03;15.77;;;12.57;;
65996;SDS011;52765;52.258;21.052;2023-04-25T10:41:32;17.92;;;13.40;;
65996;SDS011;52765;52.258;21.052;2023-04-25T10:44:11;17.85;;;12.70;;
65996;SDS011;52765;52.258;21.052;2023-04-25T10:46:36;19.35;;;12.43;;
65996;SDS011;52765;52.258;21.052;2023-04-25T10:49:02;16.48;;;12.75;;
65996;SDS011;52765;52.258;21.052;2023-04-25T10:51:28;17.77;;;12.68;;
65996;SDS011;52765;52.258;21.052;2023-04-25T10:53:58;17.52;;;12.10;;
65996;SDS011;52765;52.258;21.052;2023-04-25T10:56:29;16.98;;;13.25;;
65996;SDS011;52765;52.258;21.052;2023-04-25T10:59:29;16.00;;;13.55;;
65996;SDS011;52765;52.258;21.052;2023-04-25T11:01:53;15.77;;;12.57;;
65996;SDS011;52765;52.258;21.052;2023-04-25T11:09:30;16.77;;;12.95;;
65996;SDS011;52765;52.258;21.052;2023-04-25T11:11:58;16.45;;;11.82;;
65996;SDS011;52765;52.258;21.052;2023-04-25T11:14:26;16.35;;;12.68;;
65996;SDS011;52765;52.258;21.052;2023-04-25T11:16:55;17.05;;;13.38;;
65996;SDS011;52765;52.258;21.052;2023-04-25T11:19:22;13.32;;;11.93;;
65996;SDS011;52765;52.258;21.052;2023-04-25T11:21:49;16.17;;;12.52;;
65996;SDS011;52765;52.258;21.052;2023-04-25T11:24:18;14.30;;;11.77;;
65996;SDS011;52765;52.258;21.052;2023-04-25T11:26:46;13.05;;;10.20;;
65996;SDS011;52765;52.258;21.052;2023-04-25T11:29:15;15.77;;;10.45;;
65996;SDS011;52765;52.258;21.052;2023-04-25T11:31:43;10.65;;;8.85;;
65996;SDS011;52765;52.258;21.052;2023-04-25T11:34:10;11.82;;;10.10;;
65996;SDS011;52765;52.258;21.052;2023-04-25T11:36:36;14.95;;;10.48;;
65996;SDS011;52765;52.258;21.052;2023-04-25T11:39:03;13.18;;;9.55;;
65996;SDS011;52765;52.258;21.052;2023-04-25T11:41:30;11.98;;;9.68;;
65996;SDS011;52765;52.258;21.052;2023-04-25T11:43:56;11.75;;;8.45;;
65996;SDS011;52765;52.258;21.052;2023-04-25T11:46:21;8.68;;;7.10;;
65996;SDS011;52765;52.258;21.052;2023-04-25T11:48:47;9.88;;;6.57;;
65996;SDS011;52765;52.258;21.052;2023-04-25T11:51:12;7.30;;;6.03;;
65996;SDS011;52765;52.258;21.052;2023-04-25T11:53:40;8.02;;;6.35;;
65996;SDS011;52765;52.258;21.052;2023-04-25T11:56:10;10.02;;;5.28;;
65996;SDS011;52765;52.258;21.052;2023-04-25T12:03:53;8.70;;;6.85;;
65996;SDS011;52765;52.258;21.052;2023-04-25T12:06:19;10.15;;;6.45;;
65996;SDS011;52765;52.258;21.052;2023-04-25T12:09:00;8.07;;;6.43;;
65996;SDS011;52765;52.258;21.052;2023-04-25T12:11:29;8.25;;;6.82;;
65996;SDS011;52765;52.258;21.052;2023-04-25T12:14:03;9.82;;;7.43;;
65996;SDS011;52765;52.258;21.052;2023-04-25T12:16:30;8.65;;;7.50;;
65996;SDS011;52765;52.258;21.052;2023-04-25T12:19:05;9.90;;;7.53;;
65996;SDS011;52765;52.258;21.052;2023-04-25T12:21:31;12.95;;;7.90;;
65996;SDS011;52765;52.258;21.052;2023-04-25T12:24:07;10.73;;;6.75;;
65996;SDS011;52765;52.258;21.052;2023-04-25T12:26:45;10.07;;;7.60;;
65996;SDS011;52765;52.258;21.052;2023-04-25T12:29:24;10.77;;;7.68;;
65996;SDS011;52765;52.258;21.052;2023-04-25T12:31:51;10.77;;;7.72;;
65996;SDS011;52765;52.258;21.052;2023-04-25T12:34:18;13.75;;;7.97;;
65996;SDS011;52765;52.258;21.052;2023-04-25T12:36:45;15.10;;;7.90;;
65996;SDS011;52765;52.258;21.052;2023-04-25T12:39:14;10.07;;;7.68;;
65996;SDS011;52765;52.258;21.052;2023-04-25T12:41:45;11.90;;;7.23;;
65996;SDS011;52765;52.258;21.052;2023-04-25T12:44:11;7.50;;;6.20;;
65996;SDS011;52765;52.258;21.052;2023-04-25T12:46:37;12.73;;;7.07;;
65996;SDS011;52765;52.258;21.052;2023-04-25T12:49:03;14.32;;;7.07;;
65996;SDS011;52765;52.258;21.052;2023-04-25T12:51:29;14.20;;;7.32;;
65996;SDS011;52765;52.258;21.052;2023-04-25T12:53:55;10.75;;;6.15;;
65996;SDS011;52765;52.258;21.052;2023-04-25T12:56:22;9.88;;;5.88;;
65996;SDS011;52765;52.258;21.052;2023-04-25T12:58:47;10.48;;;5.65;;
65996;SDS011;52765;52.258;21.052;2023-04-25T13:01:13;9.30;;;5.10;;
65996;SDS011;52765;52.258;21.052;2023-04-25T13:03:39;7.18;;;4.78;;
65996;SDS011;52765;52.258;21.052;2023-04-25T13:06:06;5.47;;;4.53;;
65996;SDS011;52765;52.258;21.052;2023-04-25T13:08:33;10.15;;;4.57;;
65996;SDS011;52765;52.258;21.052;2023-04-25T13:11:00;6.15;;;4.50;;
65996;SDS011;52765;52.258;21.052;2023-04-25T13:13:25;9.68;;;4.63;;
65996;SDS011;52765;52.258;21.052;2023-04-25T13:15:52;6.13;;;4.20;;
65996;SDS011;52765;52.258;21.052;2023-04-25T13:18:18;5.78;;;3.97;;
65996;SDS011;52765;52.258;21.052;2023-04-25T13:20:44;7.88;;;4.15;;
65996;SDS011;52765;52.258;21.052;2023-04-25T13:23:11;8.07;;;4.13;;
65996;SDS011;52765;52.258;21.052;2023-04-25T13:25:36;6.13;;;4.07;;
65996;SDS011;52765;52.258;21.052;2023-04-25T13:28:02;8.73;;;4.00;;
65996;SDS011;52765;52.258;21.052;2023-04-25T13:30:28;7.25;;;4.15;;
65996;SDS011;52765;52.258;21.052;2023-04-25T13:32:53;6.28;;;4.05;;
65996;SDS011;52765;52.258;21.052;2023-04-25T13:35:21;5.97;;;4.30;;
65996;SDS011;52765;52.258;21.052;2023-04-25T13:37:47;8.25;;;4.60;;
65996;SDS011;52765;52.258;21.052;2023-04-25T13:40:13;6.85;;;4.00;;
65996;SDS011;52765;52.258;21.052;2023-04-25T13:42:38;8.23;;;3.95;;
65996;SDS011;52765;52.258;21.052;2023-04-25T13:45:04;6.57;;;4.00;;
65996;SDS011;52765;52.258;21.052;2023-04-25T13:47:31;7.70;;;4.00;;
65996;SDS011;52765;52.258;21.052;2023-04-25T13:49:56;14.77;;;7.07;;
65996;SDS011;52765;52.258;21.052;2023-04-25T13:52:22;5.25;;;3.75;;
65996;SDS011;52765;52.258;21.052;2023-04-25T13:54:49;7.00;;;3.50;;
65996;SDS011;52765;52.258;21.052;2023-04-25T13:57:16;5.90;;;3.90;;
65996;SDS011;52765;52.258;21.052;2023-04-25T13:59:42;9.23;;;3.45;;
65996;SDS011;52765;52.258;21.052;2023-04-25T14:02:08;7.40;;;3.40;;
65996;SDS011;52765;52.258;21.052;2023-04-25T14:04:33;4.95;;;3.40;;
65996;SDS011;52765;52.258;21.052;2023-04-25T14:07:00;5.72;;;3.38;;
65996;SDS011;52765;52.258;21.052;2023-04-25T14:09:27;5.22;;;3.17;;
65996;SDS011;52765;52.258;21.052;2023-04-25T14:11:53;5.25;;;3.85;;
65996;SDS011;52765;52.258;21.052;2023-04-25T14:14:19;8.02;;;4.90;;
65996;SDS011;52765;52.258;21.052;2023-04-25T14:16:46;6.55;;;4.07;;
65996;SDS011;52765;52.258;21.052;2023-04-25T14:19:15;6.82;;;5.50;;
65996;SDS011;52765;52.258;21.052;2023-04-25T14:21:41;10.90;;;6.60;;
65996;SDS011;52765;52.258;21.052;2023-04-25T14:24:08;11.25;;;7.32;;
65996;SDS011;52765;52.258;21.052;2023-04-25T14:26:34;10.68;;;7.22;;
65996;SDS011;52765;52.258;21.052;2023-04-25T14:29:01;10.70;;;5.43;;
65996;SDS011;52765;52.258;21.052;2023-04-25T14:31:26;9.30;;;6.82;;